Etusivu
METAR-TAF:

METAR-TAF

Lentoasemat :

Lake Charles, Louisiana, Yhdysvallat

Leveyspiiri: 30-13N, Pituuspiiri: 093-09W, korkeus merenpinnasta: 4 m

Tämänhetkinen sää

Tämä raportti tehtiin 1 tunti ja 23 minuuttia sitten, kello 17.47 UTC
Tuuli 10 kn pohjoisesta/koillisesta puuskistuen 15 kn:hen
Lämpötila 4°C
Kosteus 93%
Ilmanpaine 1025 hPa
Näkyvyys: 4.8 km
Pilvistä 500 ft:n korkeudessa
heikkoa sadetta, utua

METAR: KCWF 011747Z 02010G15KT 3SM -RABR OVC005 04/03 A3026

Aika: 13:10 (19:10 UTC)


TAF: puuttuu

Säähavainnot ja -ennusteet yli 4000 lentoasemalta (METAR- ja TAF-raportit).

Käytössä olevat sääasemat on merkitty karttaan keltaisilla ja punaisilla pisteillä.

Aseta hiiri pisteen päälle nähdäksesi sääaseman nimen.

Klikkaa sitten nähdäksesi säähavainnot ja -ennusteet.

Kartan vaihtaminen: klikkaa mustalla rastilla varustettuja vihreitä pisteitä, niin voit zoomata sisään; viivalla varustettua vihreää pistettä, niin voit zoomata ulos tai vihreitä nuolia, niin pääset viereisille kartoille.


METAR-TAF: